This is the latest recevied weather packets stored in our database for station/object N0THY. If no packets are shown the sender has not sent any weather packets the latest 10 day(s).
| Time | Temp. | Humidity | Pressure | Rain* | Wind** | Luminosity | Snow |
|---|---|---|---|---|---|---|---|
| 1777523650 | 9.44° C | 55% | 1018.1 hPa | 1.02 mm | - | - | - |
| 1777522748 | 10° C | 53% | 1018.1 hPa | 1.02 mm | - | - | - |
| 1777521845 | 9.44° C | 51% | 1018.1 hPa | 1.02 mm | - | - | - |
| 1777520942 | 9.44° C | 48% | 1018.1 hPa | 1.02 mm | - | - | - |
| 1777520039 | 9.44° C | 46% | 1018 hPa | 1.02 mm | - | - | - |
| 1777519136 | 10.56° C | 45% | 1017.6 hPa | 1.02 mm | - | - | - |
| 1777518233 | 11.11° C | 44% | 1017.4 hPa | 1.02 mm | - | - | - |
| 1777517718 | 18.89° C | 29% | 1015.6 hPa | 1.02 mm | - | - | - |
| 1777517330 | 11.67° C | 41% | 1017.2 hPa | 1.02 mm | - | - | - |
| 1777516427 | 12.22° C | 43% | 1016.9 hPa | 1.02 mm | - | - | - |
| 1777515524 | 12.78° C | 42% | 1016.7 hPa | 1.02 mm | - | - | - |
| 1777513718 | 14.44° C | 33% | 1016.2 hPa | 1.02 mm | - | - | - |
| 1777512815 | 15.56° C | 27% | 1015.9 hPa | 1.02 mm | - | - | - |
| 1777511912 | 16.67° C | 26% | 1015.7 hPa | 1.02 mm | - | - | - |
| 1777511009 | 17.22° C | 25% | 1015.7 hPa | 1.02 mm | - | - | - |
| 1777510106 | 17.22° C | 26% | 1015.7 hPa | 1.02 mm | - | - | - |
| 1777509203 | 17.22° C | 26% | 1015.7 hPa | 1.02 mm | - | - | - |
| 1777508300 | 16.67° C | 27% | 1015.7 hPa | 1.02 mm | - | - | - |
| 1777507397 | 15.56° C | 29% | 1015.8 hPa | 1.02 mm | - | - | - |
| 1777506495 | 16.11° C | 28% | 1015.8 hPa | 1.02 mm | - | - | - |
| 1777505592 | 18.33° C | 25% | 1015.7 hPa | 1.02 mm | - | - | - |
| 1777504689 | 18.89° C | 24% | 1015.6 hPa | 1.02 mm | - | - | - |
| 1777503786 | 18.33° C | 26% | 1015.6 hPa | 1.02 mm | - | - | - |
| 1777502883 | 17.78° C | 27% | 1015.6 hPa | 1.02 mm | - | - | - |
| 1777501077 | 18.89° C | 29% | 1015.6 hPa | 1.02 mm | - | - | - |
* Rain since midnight (hover to see other rain measurements)
** Current wind speed in m/s (hover to see current wind gust speed)